sensor_id;sensor_type;location;lat;lon;timestamp;P1;durP1;ratioP1;P2;durP2;ratioP2
24859;SDS011;12936;52.006;4.350;2023-11-21T00:01:52;16.43;;;5.20;;
24859;SDS011;12936;52.006;4.350;2023-11-21T00:04:20;15.03;;;5.00;;
24859;SDS011;12936;52.006;4.350;2023-11-21T00:06:52;13.70;;;5.27;;
24859;SDS011;12936;52.006;4.350;2023-11-21T00:09:23;15.13;;;4.53;;
24859;SDS011;12936;52.006;4.350;2023-11-21T00:11:53;12.80;;;4.57;;
24859;SDS011;12936;52.006;4.350;2023-11-21T00:14:22;13.37;;;4.80;;
24859;SDS011;12936;52.006;4.350;2023-11-21T00:16:53;17.47;;;4.53;;
24859;SDS011;12936;52.006;4.350;2023-11-21T00:19:41;14.97;;;4.87;;
24859;SDS011;12936;52.006;4.350;2023-11-21T00:22:09;17.50;;;4.90;;
24859;SDS011;12936;52.006;4.350;2023-11-21T00:24:40;22.50;;;4.70;;
24859;SDS011;12936;52.006;4.350;2023-11-21T00:27:10;15.03;;;4.63;;
24859;SDS011;12936;52.006;4.350;2023-11-21T00:29:42;18.30;;;4.87;;
24859;SDS011;12936;52.006;4.350;2023-11-21T00:32:11;15.07;;;5.00;;
24859;SDS011;12936;52.006;4.350;2023-11-21T00:34:39;18.47;;;4.67;;
24859;SDS011;12936;52.006;4.350;2023-11-21T00:37:09;16.60;;;5.07;;
24859;SDS011;12936;52.006;4.350;2023-11-21T00:39:37;14.40;;;4.30;;
24859;SDS011;12936;52.006;4.350;2023-11-21T00:42:08;10.33;;;4.00;;
24859;SDS011;12936;52.006;4.350;2023-11-21T00:44:37;14.67;;;4.23;;
24859;SDS011;12936;52.006;4.350;2023-11-21T00:47:05;13.73;;;4.43;;
24859;SDS011;12936;52.006;4.350;2023-11-21T00:49:34;15.77;;;4.17;;
24859;SDS011;12936;52.006;4.350;2023-11-21T00:52:03;15.43;;;4.30;;
24859;SDS011;12936;52.006;4.350;2023-11-21T00:54:32;15.67;;;4.30;;
24859;SDS011;12936;52.006;4.350;2023-11-21T00:57:02;10.20;;;3.90;;
24859;SDS011;12936;52.006;4.350;2023-11-21T00:59:32;13.97;;;4.43;;
24859;SDS011;12936;52.006;4.350;2023-11-21T01:02:02;13.40;;;4.83;;
24859;SDS011;12936;52.006;4.350;2023-11-21T01:04:33;12.57;;;4.77;;
24859;SDS011;12936;52.006;4.350;2023-11-21T01:07:05;13.17;;;5.43;;
24859;SDS011;12936;52.006;4.350;2023-11-21T01:09:36;16.47;;;4.57;;
24859;SDS011;12936;52.006;4.350;2023-11-21T01:12:05;13.77;;;4.47;;
24859;SDS011;12936;52.006;4.350;2023-11-21T01:14:39;12.50;;;4.43;;
24859;SDS011;12936;52.006;4.350;2023-11-21T01:17:09;11.23;;;5.13;;
24859;SDS011;12936;52.006;4.350;2023-11-21T01:19:40;16.50;;;5.30;;
24859;SDS011;12936;52.006;4.350;2023-11-21T01:22:11;15.17;;;5.43;;
24859;SDS011;12936;52.006;4.350;2023-11-21T01:25:20;16.23;;;4.67;;
24859;SDS011;12936;52.006;4.350;2023-11-21T01:27:50;12.63;;;4.97;;
24859;SDS011;12936;52.006;4.350;2023-11-21T01:30:21;13.53;;;4.27;;
24859;SDS011;12936;52.006;4.350;2023-11-21T01:32:53;15.30;;;4.20;;
24859;SDS011;12936;52.006;4.350;2023-11-21T01:35:23;18.80;;;4.53;;
24859;SDS011;12936;52.006;4.350;2023-11-21T01:38:00;14.33;;;4.30;;
24859;SDS011;12936;52.006;4.350;2023-11-21T01:40:32;16.43;;;4.70;;
24859;SDS011;12936;52.006;4.350;2023-11-21T01:43:08;15.77;;;4.50;;
24859;SDS011;12936;52.006;4.350;2023-11-21T01:46:00;11.57;;;4.33;;
24859;SDS011;12936;52.006;4.350;2023-11-21T01:48:30;9.67;;;4.50;;
24859;SDS011;12936;52.006;4.350;2023-11-21T01:51:01;12.67;;;4.30;;
24859;SDS011;12936;52.006;4.350;2023-11-21T01:53:33;15.77;;;4.60;;
24859;SDS011;12936;52.006;4.350;2023-11-21T01:56:22;10.47;;;4.30;;
24859;SDS011;12936;52.006;4.350;2023-11-21T01:58:57;11.47;;;4.57;;
24859;SDS011;12936;52.006;4.350;2023-11-21T02:01:27;12.07;;;4.60;;
24859;SDS011;12936;52.006;4.350;2023-11-21T02:04:11;11.13;;;4.73;;
24859;SDS011;12936;52.006;4.350;2023-11-21T02:06:43;15.83;;;4.33;;
24859;SDS011;12936;52.006;4.350;2023-11-21T02:09:16;12.97;;;4.67;;
24859;SDS011;12936;52.006;4.350;2023-11-21T02:12:09;15.60;;;5.10;;
24859;SDS011;12936;52.006;4.350;2023-11-21T02:15:17;10.37;;;4.63;;
24859;SDS011;12936;52.006;4.350;2023-11-21T02:17:52;10.83;;;4.33;;
24859;SDS011;12936;52.006;4.350;2023-11-21T02:21:04;8.90;;;3.97;;
24859;SDS011;12936;52.006;4.350;2023-11-21T02:23:59;12.70;;;5.00;;
24859;SDS011;12936;52.006;4.350;2023-11-21T02:26:51;8.43;;;4.40;;
24859;SDS011;12936;52.006;4.350;2023-11-21T02:29:24;11.20;;;4.67;;
24859;SDS011;12936;52.006;4.350;2023-11-21T02:31:56;9.83;;;4.43;;
24859;SDS011;12936;52.006;4.350;2023-11-21T02:34:26;13.50;;;4.37;;
24859;SDS011;12936;52.006;4.350;2023-11-21T02:36:56;11.30;;;4.90;;
24859;SDS011;12936;52.006;4.350;2023-11-21T02:39:29;13.40;;;4.83;;
24859;SDS011;12936;52.006;4.350;2023-11-21T02:42:20;13.87;;;4.83;;
24859;SDS011;12936;52.006;4.350;2023-11-21T02:44:49;13.53;;;4.93;;
24859;SDS011;12936;52.006;4.350;2023-11-21T02:47:19;9.10;;;4.23;;
24859;SDS011;12936;52.006;4.350;2023-11-21T02:49:51;7.27;;;4.33;;
24859;SDS011;12936;52.006;4.350;2023-11-21T02:52:19;8.97;;;4.53;;
24859;SDS011;12936;52.006;4.350;2023-11-21T02:55:11;12.77;;;4.50;;
24859;SDS011;12936;52.006;4.350;2023-11-21T02:57:46;10.70;;;4.33;;
24859;SDS011;12936;52.006;4.350;2023-11-21T03:00:19;9.50;;;3.93;;
24859;SDS011;12936;52.006;4.350;2023-11-21T03:02:52;10.60;;;4.00;;
24859;SDS011;12936;52.006;4.350;2023-11-21T03:06:07;7.27;;;4.03;;
24859;SDS011;12936;52.006;4.350;2023-11-21T03:08:38;11.17;;;3.97;;
24859;SDS011;12936;52.006;4.350;2023-11-21T03:11:11;7.33;;;3.93;;
24859;SDS011;12936;52.006;4.350;2023-11-21T03:13:43;7.27;;;4.17;;
24859;SDS011;12936;52.006;4.350;2023-11-21T03:16:34;8.50;;;3.93;;
24859;SDS011;12936;52.006;4.350;2023-11-21T03:19:26;7.07;;;4.10;;
24859;SDS011;12936;52.006;4.350;2023-11-21T03:21:56;9.37;;;3.73;;
24859;SDS011;12936;52.006;4.350;2023-11-21T03:24:25;10.97;;;3.93;;
24859;SDS011;12936;52.006;4.350;2023-11-21T03:26:56;5.93;;;3.13;;
24859;SDS011;12936;52.006;4.350;2023-11-21T03:29:28;12.77;;;4.30;;
24859;SDS011;12936;52.006;4.350;2023-11-21T03:31:59;10.10;;;3.90;;
24859;SDS011;12936;52.006;4.350;2023-11-21T03:34:32;7.27;;;3.77;;
24859;SDS011;12936;52.006;4.350;2023-11-21T03:37:43;14.30;;;4.90;;
24859;SDS011;12936;52.006;4.350;2023-11-21T03:40:13;7.33;;;3.57;;
24859;SDS011;12936;52.006;4.350;2023-11-21T03:42:49;8.33;;;3.80;;
24859;SDS011;12936;52.006;4.350;2023-11-21T03:45:18;8.57;;;4.20;;
24859;SDS011;12936;52.006;4.350;2023-11-21T03:47:47;6.93;;;3.97;;
24859;SDS011;12936;52.006;4.350;2023-11-21T03:50:19;5.63;;;3.70;;
24859;SDS011;12936;52.006;4.350;2023-11-21T03:52:48;7.20;;;4.27;;
24859;SDS011;12936;52.006;4.350;2023-11-21T03:55:22;6.10;;;3.60;;
24859;SDS011;12936;52.006;4.350;2023-11-21T03:58:02;5.97;;;4.03;;
24859;SDS011;12936;52.006;4.350;2023-11-21T04:00:30;9.13;;;4.27;;
24859;SDS011;12936;52.006;4.350;2023-11-21T04:03:06;9.37;;;4.03;;
24859;SDS011;12936;52.006;4.350;2023-11-21T04:05:37;9.27;;;4.37;;
24859;SDS011;12936;52.006;4.350;2023-11-21T04:08:07;10.87;;;3.87;;
24859;SDS011;12936;52.006;4.350;2023-11-21T04:10:36;6.97;;;4.77;;
24859;SDS011;12936;52.006;4.350;2023-11-21T04:13:10;7.10;;;4.10;;
24859;SDS011;12936;52.006;4.350;2023-11-21T04:15:40;6.63;;;4.30;;
24859;SDS011;12936;52.006;4.350;2023-11-21T04:18:22;6.93;;;4.53;;
24859;SDS011;12936;52.006;4.350;2023-11-21T04:20:50;7.70;;;3.87;;
24859;SDS011;12936;52.006;4.350;2023-11-21T04:23:19;7.47;;;3.97;;
24859;SDS011;12936;52.006;4.350;2023-11-21T04:25:49;7.33;;;4.13;;
24859;SDS011;12936;52.006;4.350;2023-11-21T04:28:41;5.30;;;4.10;;
24859;SDS011;12936;52.006;4.350;2023-11-21T04:31:12;6.33;;;3.80;;
24859;SDS011;12936;52.006;4.350;2023-11-21T04:33:46;8.50;;;4.30;;
24859;SDS011;12936;52.006;4.350;2023-11-21T04:36:15;11.33;;;4.20;;
24859;SDS011;12936;52.006;4.350;2023-11-21T04:38:44;9.63;;;4.40;;
24859;SDS011;12936;52.006;4.350;2023-11-21T04:41:18;9.33;;;4.30;;
24859;SDS011;12936;52.006;4.350;2023-11-21T04:43:50;8.70;;;4.20;;
24859;SDS011;12936;52.006;4.350;2023-11-21T04:46:20;9.23;;;4.27;;
24859;SDS011;12936;52.006;4.350;2023-11-21T04:48:49;9.67;;;4.37;;
24859;SDS011;12936;52.006;4.350;2023-11-21T04:51:47;8.30;;;4.03;;
24859;SDS011;12936;52.006;4.350;2023-11-21T04:54:19;7.60;;;4.30;;
24859;SDS011;12936;52.006;4.350;2023-11-21T04:56:53;8.60;;;4.30;;
24859;SDS011;12936;52.006;4.350;2023-11-21T04:59:23;7.97;;;3.97;;
24859;SDS011;12936;52.006;4.350;2023-11-21T05:02:16;6.90;;;4.33;;
24859;SDS011;12936;52.006;4.350;2023-11-21T05:05:01;9.70;;;4.63;;
24859;SDS011;12936;52.006;4.350;2023-11-21T05:07:32;8.13;;;4.63;;
24859;SDS011;12936;52.006;4.350;2023-11-21T05:10:04;9.30;;;4.30;;
24859;SDS011;12936;52.006;4.350;2023-11-21T05:12:36;7.43;;;4.50;;
24859;SDS011;12936;52.006;4.350;2023-11-21T05:15:07;9.47;;;4.07;;
24859;SDS011;12936;52.006;4.350;2023-11-21T05:17:38;9.23;;;4.43;;
24859;SDS011;12936;52.006;4.350;2023-11-21T05:20:08;6.47;;;3.87;;
24859;SDS011;12936;52.006;4.350;2023-11-21T05:22:46;9.73;;;5.03;;
24859;SDS011;12936;52.006;4.350;2023-11-21T05:25:16;8.27;;;4.37;;
24859;SDS011;12936;52.006;4.350;2023-11-21T05:27:46;8.53;;;4.30;;
24859;SDS011;12936;52.006;4.350;2023-11-21T05:30:16;6.77;;;4.33;;
24859;SDS011;12936;52.006;4.350;2023-11-21T05:32:45;5.40;;;3.60;;
24859;SDS011;12936;52.006;4.350;2023-11-21T05:35:13;7.37;;;4.00;;
24859;SDS011;12936;52.006;4.350;2023-11-21T05:37:44;6.37;;;3.90;;
24859;SDS011;12936;52.006;4.350;2023-11-21T05:40:15;6.83;;;4.00;;
24859;SDS011;12936;52.006;4.350;2023-11-21T05:42:44;5.97;;;3.27;;
24859;SDS011;12936;52.006;4.350;2023-11-21T05:45:13;5.80;;;3.50;;
24859;SDS011;12936;52.006;4.350;2023-11-21T05:47:46;5.13;;;3.27;;
24859;SDS011;12936;52.006;4.350;2023-11-21T05:50:37;5.20;;;2.77;;
24859;SDS011;12936;52.006;4.350;2023-11-21T05:53:05;4.33;;;3.00;;
24859;SDS011;12936;52.006;4.350;2023-11-21T05:55:35;6.20;;;2.80;;
24859;SDS011;12936;52.006;4.350;2023-11-21T05:58:05;4.60;;;2.50;;
24859;SDS011;12936;52.006;4.350;2023-11-21T06:00:34;10.40;;;2.80;;
24859;SDS011;12936;52.006;4.350;2023-11-21T06:03:03;7.20;;;2.77;;
24859;SDS011;12936;52.006;4.350;2023-11-21T06:05:32;6.10;;;2.80;;
24859;SDS011;12936;52.006;4.350;2023-11-21T06:08:00;6.97;;;2.67;;
24859;SDS011;12936;52.006;4.350;2023-11-21T06:10:28;6.23;;;2.20;;
24859;SDS011;12936;52.006;4.350;2023-11-21T06:12:57;6.57;;;2.90;;
24859;SDS011;12936;52.006;4.350;2023-11-21T06:15:29;6.43;;;2.90;;
24859;SDS011;12936;52.006;4.350;2023-11-21T06:17:57;5.50;;;2.40;;
24859;SDS011;12936;52.006;4.350;2023-11-21T06:20:27;6.17;;;2.60;;
24859;SDS011;12936;52.006;4.350;2023-11-21T06:22:55;4.97;;;2.00;;
24859;SDS011;12936;52.006;4.350;2023-11-21T06:25:23;3.13;;;1.80;;
24859;SDS011;12936;52.006;4.350;2023-11-21T06:27:51;4.40;;;1.90;;
24859;SDS011;12936;52.006;4.350;2023-11-21T06:30:20;3.47;;;1.53;;
24859;SDS011;12936;52.006;4.350;2023-11-21T06:32:49;5.37;;;1.63;;
24859;SDS011;12936;52.006;4.350;2023-11-21T06:35:19;4.30;;;1.40;;
24859;SDS011;12936;52.006;4.350;2023-11-21T06:37:48;7.63;;;1.80;;
24859;SDS011;12936;52.006;4.350;2023-11-21T06:40:18;4.83;;;1.70;;
24859;SDS011;12936;52.006;4.350;2023-11-21T06:42:47;4.57;;;1.47;;
24859;SDS011;12936;52.006;4.350;2023-11-21T06:45:17;4.83;;;1.73;;
24859;SDS011;12936;52.006;4.350;2023-11-21T06:47:46;5.73;;;1.97;;
24859;SDS011;12936;52.006;4.350;2023-11-21T06:50:15;4.27;;;1.70;;
24859;SDS011;12936;52.006;4.350;2023-11-21T06:52:43;5.87;;;2.03;;
24859;SDS011;12936;52.006;4.350;2023-11-21T06:55:13;3.73;;;1.67;;
24859;SDS011;12936;52.006;4.350;2023-11-21T06:57:42;9.20;;;2.07;;
24859;SDS011;12936;52.006;4.350;2023-11-21T07:00:11;4.67;;;1.90;;
24859;SDS011;12936;52.006;4.350;2023-11-21T07:02:41;9.27;;;2.40;;
24859;SDS011;12936;52.006;4.350;2023-11-21T07:05:09;10.70;;;2.40;;
24859;SDS011;12936;52.006;4.350;2023-11-21T07:07:37;8.77;;;2.33;;
24859;SDS011;12936;52.006;4.350;2023-11-21T07:10:05;11.40;;;2.60;;
24859;SDS011;12936;52.006;4.350;2023-11-21T07:12:36;8.57;;;2.47;;
24859;SDS011;12936;52.006;4.350;2023-11-21T07:15:05;11.67;;;2.70;;
24859;SDS011;12936;52.006;4.350;2023-11-21T07:17:35;13.43;;;2.60;;
24859;SDS011;12936;52.006;4.350;2023-11-21T07:20:07;10.83;;;2.73;;
24859;SDS011;12936;52.006;4.350;2023-11-21T07:22:37;13.37;;;3.13;;
24859;SDS011;12936;52.006;4.350;2023-11-21T07:25:05;11.90;;;2.93;;
24859;SDS011;12936;52.006;4.350;2023-11-21T07:27:37;16.53;;;3.07;;
24859;SDS011;12936;52.006;4.350;2023-11-21T07:30:05;13.73;;;3.30;;
24859;SDS011;12936;52.006;4.350;2023-11-21T07:32:36;12.13;;;3.60;;
24859;SDS011;12936;52.006;4.350;2023-11-21T07:35:08;12.87;;;2.90;;
24859;SDS011;12936;52.006;4.350;2023-11-21T07:37:37;11.40;;;2.70;;
24859;SDS011;12936;52.006;4.350;2023-11-21T07:40:06;11.80;;;3.13;;
24859;SDS011;12936;52.006;4.350;2023-11-21T07:42:39;16.00;;;2.77;;
24859;SDS011;12936;52.006;4.350;2023-11-21T07:45:09;13.37;;;3.10;;
24859;SDS011;12936;52.006;4.350;2023-11-21T07:47:38;19.37;;;2.90;;
24859;SDS011;12936;52.006;4.350;2023-11-21T07:50:07;11.20;;;2.67;;
24859;SDS011;12936;52.006;4.350;2023-11-21T07:52:36;8.20;;;2.50;;
24859;SDS011;12936;52.006;4.350;2023-11-21T07:55:05;6.67;;;2.47;;
24859;SDS011;12936;52.006;4.350;2023-11-21T07:57:34;11.63;;;3.13;;
24859;SDS011;12936;52.006;4.350;2023-11-21T08:00:04;12.93;;;2.40;;
24859;SDS011;12936;52.006;4.350;2023-11-21T08:02:36;9.73;;;2.30;;
24859;SDS011;12936;52.006;4.350;2023-11-21T08:05:04;12.43;;;2.50;;
24859;SDS011;12936;52.006;4.350;2023-11-21T08:07:40;6.20;;;2.13;;
24859;SDS011;12936;52.006;4.350;2023-11-21T08:10:09;11.90;;;2.13;;
24859;SDS011;12936;52.006;4.350;2023-11-21T08:12:37;10.43;;;2.60;;
24859;SDS011;12936;52.006;4.350;2023-11-21T08:15:08;11.07;;;2.40;;
24859;SDS011;12936;52.006;4.350;2023-11-21T08:17:37;8.27;;;2.50;;
24859;SDS011;12936;52.006;4.350;2023-11-21T08:20:05;15.33;;;2.60;;
24859;SDS011;12936;52.006;4.350;2023-11-21T08:22:35;7.03;;;2.10;;
24859;SDS011;12936;52.006;4.350;2023-11-21T08:25:03;9.77;;;2.63;;
24859;SDS011;12936;52.006;4.350;2023-11-21T08:27:32;15.70;;;2.70;;
24859;SDS011;12936;52.006;4.350;2023-11-21T08:30:01;10.77;;;2.60;;
24859;SDS011;12936;52.006;4.350;2023-11-21T08:32:31;11.13;;;2.87;;
24859;SDS011;12936;52.006;4.350;2023-11-21T08:34:59;14.40;;;3.17;;
24859;SDS011;12936;52.006;4.350;2023-11-21T08:37:28;7.23;;;2.53;;
24859;SDS011;12936;52.006;4.350;2023-11-21T08:39:59;14.00;;;3.20;;
24859;SDS011;12936;52.006;4.350;2023-11-21T08:42:28;10.47;;;2.47;;
24859;SDS011;12936;52.006;4.350;2023-11-21T08:44:57;13.07;;;4.07;;
24859;SDS011;12936;52.006;4.350;2023-11-21T08:47:25;12.53;;;2.60;;
24859;SDS011;12936;52.006;4.350;2023-11-21T08:49:54;9.00;;;2.80;;
24859;SDS011;12936;52.006;4.350;2023-11-21T08:52:24;7.63;;;2.60;;
24859;SDS011;12936;52.006;4.350;2023-11-21T08:54:52;8.07;;;2.77;;
24859;SDS011;12936;52.006;4.350;2023-11-21T08:57:22;9.17;;;2.67;;
24859;SDS011;12936;52.006;4.350;2023-11-21T08:59:50;12.07;;;2.97;;
24859;SDS011;12936;52.006;4.350;2023-11-21T09:02:21;8.10;;;2.43;;
24859;SDS011;12936;52.006;4.350;2023-11-21T09:04:50;11.57;;;2.50;;
24859;SDS011;12936;52.006;4.350;2023-11-21T09:07:20;9.13;;;2.30;;
24859;SDS011;12936;52.006;4.350;2023-11-21T09:09:48;7.70;;;2.57;;
24859;SDS011;12936;52.006;4.350;2023-11-21T09:12:17;5.20;;;2.30;;
24859;SDS011;12936;52.006;4.350;2023-11-21T09:14:45;8.23;;;2.10;;
24859;SDS011;12936;52.006;4.350;2023-11-21T09:17:14;5.83;;;2.50;;
24859;SDS011;12936;52.006;4.350;2023-11-21T09:19:42;8.57;;;2.40;;
24859;SDS011;12936;52.006;4.350;2023-11-21T09:22:11;6.90;;;2.80;;
24859;SDS011;12936;52.006;4.350;2023-11-21T09:24:41;6.80;;;2.90;;
24859;SDS011;12936;52.006;4.350;2023-11-21T09:27:09;34.20;;;20.23;;
24859;SDS011;12936;52.006;4.350;2023-11-21T09:29:37;9.83;;;5.17;;
24859;SDS011;12936;52.006;4.350;2023-11-21T09:32:06;4.97;;;3.23;;
24859;SDS011;12936;52.006;4.350;2023-11-21T09:34:34;4.47;;;2.63;;
24859;SDS011;12936;52.006;4.350;2023-11-21T09:37:05;4.70;;;2.93;;
24859;SDS011;12936;52.006;4.350;2023-11-21T09:39:33;5.73;;;2.83;;
24859;SDS011;12936;52.006;4.350;2023-11-21T09:42:04;5.67;;;2.80;;
24859;SDS011;12936;52.006;4.350;2023-11-21T09:44:41;5.80;;;2.93;;
24859;SDS011;12936;52.006;4.350;2023-11-21T09:47:15;5.57;;;3.40;;
24859;SDS011;12936;52.006;4.350;2023-11-21T09:49:47;5.90;;;3.50;;
24859;SDS011;12936;52.006;4.350;2023-11-21T09:52:18;4.73;;;2.90;;
24859;SDS011;12936;52.006;4.350;2023-11-21T09:54:52;5.57;;;3.10;;
24859;SDS011;12936;52.006;4.350;2023-11-21T09:57:22;5.73;;;3.27;;
24859;SDS011;12936;52.006;4.350;2023-11-21T09:59:52;4.27;;;3.37;;
24859;SDS011;12936;52.006;4.350;2023-11-21T10:02:23;4.10;;;3.17;;
24859;SDS011;12936;52.006;4.350;2023-11-21T10:04:55;7.40;;;3.40;;
24859;SDS011;12936;52.006;4.350;2023-11-21T10:07:23;4.53;;;3.23;;
24859;SDS011;12936;52.006;4.350;2023-11-21T10:09:52;5.53;;;3.30;;
24859;SDS011;12936;52.006;4.350;2023-11-21T10:12:22;4.70;;;3.50;;
24859;SDS011;12936;52.006;4.350;2023-11-21T10:14:52;4.83;;;3.67;;
24859;SDS011;12936;52.006;4.350;2023-11-21T10:17:24;8.43;;;3.40;;
24859;SDS011;12936;52.006;4.350;2023-11-21T10:19:56;4.47;;;3.40;;
24859;SDS011;12936;52.006;4.350;2023-11-21T10:22:26;6.47;;;3.67;;
24859;SDS011;12936;52.006;4.350;2023-11-21T10:24:55;7.53;;;3.70;;
24859;SDS011;12936;52.006;4.350;2023-11-21T10:27:24;8.63;;;4.07;;
24859;SDS011;12936;52.006;4.350;2023-11-21T10:29:54;4.37;;;3.00;;
24859;SDS011;12936;52.006;4.350;2023-11-21T10:32:22;3.63;;;2.77;;
24859;SDS011;12936;52.006;4.350;2023-11-21T10:34:58;5.47;;;3.00;;
24859;SDS011;12936;52.006;4.350;2023-11-21T10:37:32;4.57;;;3.10;;
24859;SDS011;12936;52.006;4.350;2023-11-21T10:40:01;5.23;;;3.10;;
24859;SDS011;12936;52.006;4.350;2023-11-21T10:42:33;5.63;;;3.53;;
24859;SDS011;12936;52.006;4.350;2023-11-21T10:45:01;5.13;;;2.97;;
24859;SDS011;12936;52.006;4.350;2023-11-21T10:47:36;4.47;;;2.67;;
24859;SDS011;12936;52.006;4.350;2023-11-21T10:50:06;5.00;;;3.33;;
24859;SDS011;12936;52.006;4.350;2023-11-21T10:52:37;5.47;;;2.93;;
24859;SDS011;12936;52.006;4.350;2023-11-21T10:55:16;5.37;;;2.87;;
24859;SDS011;12936;52.006;4.350;2023-11-21T10:57:47;5.07;;;3.10;;
24859;SDS011;12936;52.006;4.350;2023-11-21T11:00:16;3.67;;;3.07;;
24859;SDS011;12936;52.006;4.350;2023-11-21T11:02:48;4.27;;;2.90;;
24859;SDS011;12936;52.006;4.350;2023-11-21T11:05:19;4.37;;;3.03;;
24859;SDS011;12936;52.006;4.350;2023-11-21T11:07:50;4.73;;;2.90;;
24859;SDS011;12936;52.006;4.350;2023-11-21T11:10:21;3.80;;;3.00;;
24859;SDS011;12936;52.006;4.350;2023-11-21T11:12:54;4.93;;;3.13;;
24859;SDS011;12936;52.006;4.350;2023-11-21T11:15:23;4.53;;;3.30;;
24859;SDS011;12936;52.006;4.350;2023-11-21T11:17:52;4.57;;;3.30;;
24859;SDS011;12936;52.006;4.350;2023-11-21T11:20:23;8.20;;;3.57;;
24859;SDS011;12936;52.006;4.350;2023-11-21T11:22:58;5.33;;;3.57;;
24859;SDS011;12936;52.006;4.350;2023-11-21T11:25:45;6.97;;;3.67;;
24859;SDS011;12936;52.006;4.350;2023-11-21T11:28:28;6.40;;;3.77;;
24859;SDS011;12936;52.006;4.350;2023-11-21T11:31:05;7.03;;;4.20;;
24859;SDS011;12936;52.006;4.350;2023-11-21T11:33:45;5.10;;;3.97;;
24859;SDS011;12936;52.006;4.350;2023-11-21T11:36:22;6.27;;;4.30;;
24859;SDS011;12936;52.006;4.350;2023-11-21T11:38:55;7.00;;;4.70;;
24859;SDS011;12936;52.006;4.350;2023-11-21T11:41:26;7.03;;;5.43;;
24859;SDS011;12936;52.006;4.350;2023-11-21T11:43:57;7.80;;;5.43;;
24859;SDS011;12936;52.006;4.350;2023-11-21T11:46:39;8.53;;;5.60;;
24859;SDS011;12936;52.006;4.350;2023-11-21T11:49:09;8.83;;;5.53;;
24859;SDS011;12936;52.006;4.350;2023-11-21T11:51:37;9.40;;;5.37;;
24859;SDS011;12936;52.006;4.350;2023-11-21T11:54:05;8.20;;;5.57;;
24859;SDS011;12936;52.006;4.350;2023-11-21T11:56:34;9.37;;;5.50;;
24859;SDS011;12936;52.006;4.350;2023-11-21T11:59:05;8.70;;;5.60;;
24859;SDS011;12936;52.006;4.350;2023-11-21T12:01:36;9.67;;;5.97;;
24859;SDS011;12936;52.006;4.350;2023-11-21T12:04:23;8.10;;;5.57;;
24859;SDS011;12936;52.006;4.350;2023-11-21T12:07:01;7.00;;;4.80;;
24859;SDS011;12936;52.006;4.350;2023-11-21T12:09:33;6.97;;;5.10;;
24859;SDS011;12936;52.006;4.350;2023-11-21T12:12:01;6.40;;;4.70;;
24859;SDS011;12936;52.006;4.350;2023-11-21T12:14:31;6.63;;;3.90;;
24859;SDS011;12936;52.006;4.350;2023-11-21T12:17:00;8.47;;;4.47;;
24859;SDS011;12936;52.006;4.350;2023-11-21T12:19:29;7.17;;;5.50;;
24859;SDS011;12936;52.006;4.350;2023-11-21T12:21:57;7.73;;;5.23;;
24859;SDS011;12936;52.006;4.350;2023-11-21T12:24:26;8.27;;;6.63;;
24859;SDS011;12936;52.006;4.350;2023-11-21T12:26:55;9.97;;;6.80;;
24859;SDS011;12936;52.006;4.350;2023-11-21T12:29:23;8.20;;;6.33;;
24859;SDS011;12936;52.006;4.350;2023-11-21T12:31:53;8.40;;;6.30;;
24859;SDS011;12936;52.006;4.350;2023-11-21T12:34:22;8.83;;;6.17;;
24859;SDS011;12936;52.006;4.350;2023-11-21T12:36:51;7.77;;;5.93;;
24859;SDS011;12936;52.006;4.350;2023-11-21T12:39:20;6.23;;;5.07;;
24859;SDS011;12936;52.006;4.350;2023-11-21T12:41:49;6.50;;;4.93;;
24859;SDS011;12936;52.006;4.350;2023-11-21T12:44:18;8.17;;;5.60;;
24859;SDS011;12936;52.006;4.350;2023-11-21T12:46:46;7.77;;;5.10;;
24859;SDS011;12936;52.006;4.350;2023-11-21T12:49:16;8.57;;;5.23;;
24859;SDS011;12936;52.006;4.350;2023-11-21T12:51:45;6.90;;;5.20;;
24859;SDS011;12936;52.006;4.350;2023-11-21T12:54:13;9.40;;;5.37;;
24859;SDS011;12936;52.006;4.350;2023-11-21T12:56:44;6.40;;;5.37;;
24859;SDS011;12936;52.006;4.350;2023-11-21T12:59:15;6.47;;;5.30;;
24859;SDS011;12936;52.006;4.350;2023-11-21T13:01:44;7.33;;;5.07;;
24859;SDS011;12936;52.006;4.350;2023-11-21T13:04:13;8.10;;;4.60;;
24859;SDS011;12936;52.006;4.350;2023-11-21T13:06:45;5.20;;;3.53;;
24859;SDS011;12936;52.006;4.350;2023-11-21T13:09:13;5.33;;;3.50;;
24859;SDS011;12936;52.006;4.350;2023-11-21T13:11:48;5.40;;;3.97;;
24859;SDS011;12936;52.006;4.350;2023-11-21T13:14:16;5.23;;;4.20;;
24859;SDS011;12936;52.006;4.350;2023-11-21T13:16:44;4.63;;;3.50;;
24859;SDS011;12936;52.006;4.350;2023-11-21T13:19:13;5.03;;;3.20;;
24859;SDS011;12936;52.006;4.350;2023-11-21T13:21:42;4.63;;;3.07;;
24859;SDS011;12936;52.006;4.350;2023-11-21T13:24:10;4.37;;;3.13;;
24859;SDS011;12936;52.006;4.350;2023-11-21T13:26:39;4.27;;;3.40;;
24859;SDS011;12936;52.006;4.350;2023-11-21T13:29:07;5.13;;;3.77;;
24859;SDS011;12936;52.006;4.350;2023-11-21T13:31:35;5.63;;;5.03;;
24859;SDS011;12936;52.006;4.350;2023-11-21T13:34:05;7.03;;;5.17;;
24859;SDS011;12936;52.006;4.350;2023-11-21T13:36:35;6.27;;;5.00;;
24859;SDS011;12936;52.006;4.350;2023-11-21T13:39:07;6.23;;;4.20;;
24859;SDS011;12936;52.006;4.350;2023-11-21T13:41:42;5.93;;;4.07;;
24859;SDS011;12936;52.006;4.350;2023-11-21T13:44:10;7.57;;;5.07;;
24859;SDS011;12936;52.006;4.350;2023-11-21T13:46:43;7.87;;;5.10;;
24859;SDS011;12936;52.006;4.350;2023-11-21T13:49:13;7.17;;;5.00;;
24859;SDS011;12936;52.006;4.350;2023-11-21T13:51:42;7.03;;;4.57;;
24859;SDS011;12936;52.006;4.350;2023-11-21T13:54:13;6.33;;;4.53;;
24859;SDS011;12936;52.006;4.350;2023-11-21T13:56:41;10.03;;;4.30;;
24859;SDS011;12936;52.006;4.350;2023-11-21T13:59:11;6.43;;;4.97;;
24859;SDS011;12936;52.006;4.350;2023-11-21T14:01:47;7.63;;;5.10;;
24859;SDS011;12936;52.006;4.350;2023-11-21T14:04:24;7.43;;;5.43;;
24859;SDS011;12936;52.006;4.350;2023-11-21T14:07:13;7.17;;;5.33;;
24859;SDS011;12936;52.006;4.350;2023-11-21T14:09:59;8.87;;;5.23;;
24859;SDS011;12936;52.006;4.350;2023-11-21T14:12:27;8.40;;;5.63;;
24859;SDS011;12936;52.006;4.350;2023-11-21T14:15:04;7.53;;;4.97;;
24859;SDS011;12936;52.006;4.350;2023-11-21T14:17:35;7.47;;;5.27;;
24859;SDS011;12936;52.006;4.350;2023-11-21T14:20:06;7.63;;;5.37;;
24859;SDS011;12936;52.006;4.350;2023-11-21T14:22:42;5.93;;;4.67;;
24859;SDS011;12936;52.006;4.350;2023-11-21T14:25:11;8.07;;;5.53;;
24859;SDS011;12936;52.006;4.350;2023-11-21T14:27:40;7.37;;;5.40;;
24859;SDS011;12936;52.006;4.350;2023-11-21T14:30:09;9.03;;;6.83;;
24859;SDS011;12936;52.006;4.350;2023-11-21T14:32:39;7.03;;;5.60;;
24859;SDS011;12936;52.006;4.350;2023-11-21T14:35:08;8.17;;;6.57;;
24859;SDS011;12936;52.006;4.350;2023-11-21T14:37:37;10.57;;;7.20;;
24859;SDS011;12936;52.006;4.350;2023-11-21T14:40:06;8.03;;;6.53;;
24859;SDS011;12936;52.006;4.350;2023-11-21T14:42:36;11.83;;;7.80;;
24859;SDS011;12936;52.006;4.350;2023-11-21T14:45:07;10.87;;;8.30;;
24859;SDS011;12936;52.006;4.350;2023-11-21T14:47:38;11.10;;;7.63;;
24859;SDS011;12936;52.006;4.350;2023-11-21T14:50:11;10.43;;;8.00;;
24859;SDS011;12936;52.006;4.350;2023-11-21T14:53:09;21.63;;;10.70;;
24859;SDS011;12936;52.006;4.350;2023-11-21T14:55:39;14.23;;;10.03;;
24859;SDS011;12936;52.006;4.350;2023-11-21T14:58:22;15.90;;;10.90;;
24859;SDS011;12936;52.006;4.350;2023-11-21T15:00:54;11.63;;;8.80;;
24859;SDS011;12936;52.006;4.350;2023-11-21T15:03:25;14.10;;;10.00;;
24859;SDS011;12936;52.006;4.350;2023-11-21T15:06:16;16.13;;;10.37;;
24859;SDS011;12936;52.006;4.350;2023-11-21T15:08:51;13.67;;;10.00;;
24859;SDS011;12936;52.006;4.350;2023-11-21T15:11:25;14.77;;;10.30;;
24859;SDS011;12936;52.006;4.350;2023-11-21T15:13:58;14.47;;;9.90;;